Terminal Aerodrome Forecast
Issued by NWS

Home | Current Version | Previous Version | Text Only | Print | Product List | Glossary On
Versions: 1 2 3 4 5 6 7 8 9 10 11 12
000
FTUS46 KMTR 290534
TAFSJC
TAF
KSJC 290534Z 2906/3006 28003KT P6SM SCT007
     FM291300 VRB04KT 5SM BR OVC007
     FM291800 31010KT P6SM FEW008 SCT070
     FM300400 31006KT P6SM FEW008=

USA.gov is the U.S. government's official web portal to all federal, state and local government web resources and services.